Observation data for Spur on 08/14/2019      Previous  Date  Next       Current Mesonet Observations  Soil Data  Daily Summary Page  Observations in Plain Language
KSP1 140500Z 07008KT 28/18 A3006 RMK A01 T02820182  RH  058%=      5-min Rain = 0
KSP1 140505Z 06008KT 28/18 A3006 RMK A01 T02820183  RH  058%=      5-min Rain = 0
KSP1 140510Z 06007KT 28/18 A3006 RMK A01 T02810183  RH  058%=      5-min Rain = 0
KSP1 140515Z 07007KT 28/18 A3005 RMK A01 T02800183  RH  059%=      5-min Rain = 0
KSP1 140520Z 08007KT 28/18 A3005 RMK A01 T02800183  RH  059%=      5-min Rain = 0
KSP1 140525Z 07006KT 28/18 A3006 RMK A01 T02790183  RH  059%=      5-min Rain = 0
KSP1 140530Z 08006KT 28/18 A3006 RMK A01 T02790183  RH  059%=      5-min Rain = 0
KSP1 140535Z 08007KT 28/18 A3005 RMK A01 T02790183  RH  059%=      5-min Rain = 0
KSP1 140540Z 07007KT 28/18 A3005 RMK A01 T02780183  RH  059%=      5-min Rain = 0
KSP1 140545Z 07006KT 28/18 A3006 RMK A01 T02770184  RH  060%=      5-min Rain = 0
KSP1 140550Z 07006KT 28/18 A3006 RMK A01 T02750184  RH  060%=      5-min Rain = 0
KSP1 140555Z 08006KT 28/18 A3006 RMK A01 T02750184  RH  061%=      5-min Rain = 0
KSP1 140600Z 07006KT 28/18 A3006 RMK A01 T02750184  RH  061%=      5-min Rain = 0
KSP1 140605Z 07007KT 28/18 A3006 RMK A01 T02750183  RH  061%=      5-min Rain = 0
KSP1 140610Z 08006KT 27/18 A3006 RMK A01 T02740183  RH  061%=      5-min Rain = 0
KSP1 140615Z 07006KT 27/18 A3006 RMK A01 T02730183  RH  061%=      5-min Rain = 0
KSP1 140620Z 08005KT 27/18 A3007 RMK A01 T02720183  RH  061%=      5-min Rain = 0
KSP1 140625Z 08006KT 27/18 A3007 RMK A01 T02720183  RH  061%=      5-min Rain = 0
KSP1 140630Z 08006KT 27/18 A3007 RMK A01 T02720183  RH  061%=      5-min Rain = 0
KSP1 140635Z 07006KT 27/18 A3007 RMK A01 T02710183  RH  062%=      5-min Rain = 0
KSP1 140640Z 07006KT 27/18 A3007 RMK A01 T02690183  RH  062%=      5-min Rain = 0
KSP1 140645Z 06006KT 27/18 A3007 RMK A01 T02680183  RH  063%=      5-min Rain = 0
KSP1 140650Z 06006KT 27/18 A3007 RMK A01 T02670182  RH  063%=      5-min Rain = 0
KSP1 140655Z 06007KT 27/18 A3008 RMK A01 T02670182  RH  063%=      5-min Rain = 0
KSP1 140700Z 05008KT 27/18 A3008 RMK A01 T02670182  RH  063%=      5-min Rain = 0
KSP1 140705Z 04010KT 27/18 A3009 RMK A01 T02670181  RH  063%=      5-min Rain = 0
KSP1 140710Z 05010KT 27/18 A3008 RMK A01 T02650181  RH  063%=      5-min Rain = 0
KSP1 140715Z 05009KT 26/18 A3008 RMK A01 T02630181  RH  064%=      5-min Rain = 0
KSP1 140720Z 05008G13KT 26/18 A3008 RMK A01 T02620181  RH  064%=      5-min Rain = 0
KSP1 140725Z 05008KT 26/18 A3008 RMK A01 T02620181  RH  064%=      5-min Rain = 0
KSP1 140730Z 05008KT 26/18 A3008 RMK A01 T02610181  RH  065%=      5-min Rain = 0
KSP1 140735Z 05008KT 26/18 A3008 RMK A01 T02600181  RH  065%=      5-min Rain = 0
KSP1 140740Z 05009KT 26/18 A3008 RMK A01 T02590181  RH  065%=      5-min Rain = 0
KSP1 140745Z 05008KT 26/18 A3008 RMK A01 T02580181  RH  066%=      5-min Rain = 0
KSP1 140750Z 05008KT 26/18 A3008 RMK A01 T02570181  RH  066%=      5-min Rain = 0
KSP1 140755Z 05008G13KT 26/18 A3008 RMK A01 T02580181  RH  066%=      5-min Rain = 0
KSP1 140800Z 05008KT 26/18 A3008 RMK A01 T02580181  RH  066%=      5-min Rain = 0
KSP1 140805Z 05007KT 26/18 A3008 RMK A01 T02590182  RH  066%=      5-min Rain = 0
KSP1 140810Z 05007KT 26/18 A3008 RMK A01 T02580181  RH  066%=      5-min Rain = 0
KSP1 140815Z 05009KT 26/18 A3007 RMK A01 T02580181  RH  066%=      5-min Rain = 0
KSP1 140820Z 05008KT 26/18 A3007 RMK A01 T02570181  RH  066%=      5-min Rain = 0
KSP1 140825Z 05007KT 26/18 A3007 RMK A01 T02570181  RH  066%=      5-min Rain = 0
KSP1 140830Z 05007KT 26/18 A3006 RMK A01 T02560181  RH  066%=      5-min Rain = 0
KSP1 140835Z 05006KT 26/18 A3006 RMK A01 T02550180  RH  067%=      5-min Rain = 0
KSP1 140840Z 04006KT 25/18 A3006 RMK A01 T02540180  RH  067%=      5-min Rain = 0
KSP1 140845Z 04006KT 25/18 A3006 RMK A01 T02530180  RH  067%=      5-min Rain = 0
KSP1 140850Z 03006KT 25/18 A3006 RMK A01 T02520180  RH  068%=      5-min Rain = 0
KSP1 140855Z 03008KT 25/18 A3006 RMK A01 T02500179  RH  068%=      5-min Rain = 0
KSP1 140900Z 03007KT 25/18 A3006 RMK A01 T02490179  RH  069%=      5-min Rain = 0
KSP1 140905Z 03007KT 25/18 A3006 RMK A01 T02480179  RH  069%=      5-min Rain = 0
KSP1 140910Z 03008KT 25/18 A3006 RMK A01 T02480178  RH  069%=      5-min Rain = 0
KSP1 140915Z 03009KT 25/18 A3006 RMK A01 T02480178  RH  068%=      5-min Rain = 0
KSP1 140920Z 04008KT 25/18 A3006 RMK A01 T02480177  RH  068%=      5-min Rain = 0
KSP1 140925Z 04008KT 25/18 A3006 RMK A01 T02480176  RH  067%=      5-min Rain = 0
KSP1 140930Z 03009KT 25/18 A3006 RMK A01 T02490176  RH  067%=      5-min Rain = 0
KSP1 140935Z 04008KT 25/18 A3007 RMK A01 T02490175  RH  067%=      5-min Rain = 0
KSP1 140940Z 04008KT 25/18 A3007 RMK A01 T02490175  RH  067%=      5-min Rain = 0
KSP1 140945Z 04009KT 25/18 A3007 RMK A01 T02490175  RH  067%=      5-min Rain = 0
KSP1 140950Z 04009KT 25/18 A3007 RMK A01 T02500175  RH  066%=      5-min Rain = 0
KSP1 140955Z 04011G16KT 25/18 A3007 RMK A01 T02500175  RH  066%=      5-min Rain = 0
KSP1 141000Z 04012G18KT 25/17 A3007 RMK A01 T02490174  RH  066%=      5-min Rain = 0
KSP1 141005Z 04012KT 25/17 A3007 RMK A01 T02490174  RH  066%=      5-min Rain = 0
KSP1 141010Z 04014G19KT 25/17 A3008 RMK A01 T02480173  RH  066%=      5-min Rain = 0
KSP1 141015Z 04014G19KT 25/17 A3008 RMK A01 T02470173  RH  067%=      5-min Rain = 0
KSP1 141020Z 04013G18KT 25/17 A3008 RMK A01 T02450172  RH  067%=      5-min Rain = 0
KSP1 141025Z 03014G19KT 24/17 A3009 RMK A01 T02440172  RH  067%=      5-min Rain = 0
KSP1 141030Z 03014G20KT 24/17 A3009 RMK A01 T02420173  RH  069%=      5-min Rain = 0
KSP1 141035Z 03014G21KT 24/17 A3009 RMK A01 T02400174  RH  070%=      5-min Rain = 0
KSP1 141040Z 03015G21KT 24/17 A3009 RMK A01 T02380174  RH  071%=      5-min Rain = 0
KSP1 141045Z 03016G24KT 24/17 A301 RMK A01 T02350174  RH  072%=      5-min Rain = 0
KSP1 141050Z 03014G19KT 23/17 A301 RMK A01 T02340174  RH  072%=      5-min Rain = 0
KSP1 141055Z 03015G21KT 23/17 A301 RMK A01 T02330173  RH  072%=      5-min Rain = 0
KSP1 141100Z 03015G20KT 23/17 A301 RMK A01 T02320172  RH  072%=      5-min Rain = 0
KSP1 141105Z 03015G22KT 23/17 A301 RMK A01 T02320171  RH  072%=      5-min Rain = 0
KSP1 141110Z 03015G21KT 23/17 A301 RMK A01 T02310170  RH  072%=      5-min Rain = 0
KSP1 141115Z 03015G21KT 23/17 A301 RMK A01 T02310170  RH  072%=      5-min Rain = 0
KSP1 141120Z 03014G21KT 23/17 A301 RMK A01 T02300170  RH  072%=      5-min Rain = 0
KSP1 141125Z 03014G20KT 23/17 A3011 RMK A01 T02290169  RH  072%=      5-min Rain = 0
KSP1 141130Z 04014G19KT 23/17 A3011 RMK A01 T02280168  RH  072%=      5-min Rain = 0
KSP1 141135Z 04013G18KT 23/17 A3011 RMK A01 T02270167  RH  073%=      5-min Rain = 0
KSP1 141140Z 03013G18KT 23/17 A3011 RMK A01 T02260166  RH  072%=      5-min Rain = 0
KSP1 141145Z 03011KT 23/17 A3011 RMK A01 T02250165  RH  072%=      5-min Rain = 0
KSP1 141150Z 03011KT 22/16 A3011 RMK A01 T02230164  RH  073%=      5-min Rain = 0
KSP1 141155Z 03012KT 22/16 A3011 RMK A01 T02210163  RH  073%=      5-min Rain = 0
KSP1 141200Z 03013KT 22/16 A3011 RMK A01 T02200162  RH  073%=      5-min Rain = 0
KSP1 141205Z 03010G15KT 22/16 A3012 RMK A01 T02190161  RH  073%=      5-min Rain = 0
KSP1 141210Z 03010KT 22/16 A3012 RMK A01 T02180161  RH  073%=      5-min Rain = 0
KSP1 141215Z 03010G16KT 22/16 A3012 RMK A01 T02180162  RH  074%=      5-min Rain = 0
KSP1 141220Z 02010G16KT 22/16 A3012 RMK A01 T02170162  RH  074%=      5-min Rain = 0
KSP1 141225Z 03011G17KT 22/16 A3013 RMK A01 T02160161  RH  074%=      5-min Rain = 0
KSP1 141230Z 03011KT 22/16 A3013 RMK A01 T02160161  RH  074%=      5-min Rain = 0
KSP1 141235Z 03009KT 22/16 A3013 RMK A01 T02160160  RH  074%=      5-min Rain = 0
KSP1 141240Z 04008KT 22/16 A3013 RMK A01 T02170161  RH  074%=      5-min Rain = 0
KSP1 141245Z 03010KT 22/16 A3014 RMK A01 T02180160  RH  073%=      5-min Rain = 0
KSP1 141250Z 03011KT 22/16 A3014 RMK A01 T02180161  RH  073%=      5-min Rain = 0
KSP1 141255Z 03011KT 22/16 A3015 RMK A01 T02190160  RH  073%=      5-min Rain = 0
KSP1 141300Z 02010G15KT 22/16 A3015 RMK A01 T02190160  RH  073%=      5-min Rain = 0
KSP1 141305Z 03012KT 22/16 A3015 RMK A01 T02200160  RH  072%=      5-min Rain = 0
KSP1 141310Z 03010KT 22/16 A3015 RMK A01 T02210160  RH  072%=      5-min Rain = 0
KSP1 141315Z 03010KT 22/16 A3016 RMK A01 T02230160  RH  071%=      5-min Rain = 0
KSP1 141320Z 03011KT 22/16 A3015 RMK A01 T02240160  RH  070%=      5-min Rain = 0
KSP1 141325Z 03012KT 23/16 A3015 RMK A01 T02260160  RH  070%=      5-min Rain = 0
KSP1 141330Z 03011G17KT 23/16 A3015 RMK A01 T02280161  RH  069%=      5-min Rain = 0
KSP1 141335Z 03010KT 23/16 A3016 RMK A01 T02300162  RH  069%=      5-min Rain = 0
KSP1 141340Z 03012KT 23/16 A3016 RMK A01 T02300162  RH  069%=      5-min Rain = 0
KSP1 141345Z 03012G17KT 23/16 A3016 RMK A01 T02290163  RH  069%=      5-min Rain = 0
KSP1 141350Z 02011KT 23/16 A3017 RMK A01 T02300164  RH  070%=      5-min Rain = 0
KSP1 141355Z 03011KT 23/17 A3017 RMK A01 T02340165  RH  068%=      5-min Rain = 0
KSP1 141400Z 03012G17KT 24/17 A3017 RMK A01 T02350166  RH  069%=      5-min Rain = 0
KSP1 141405Z 02012KT 24/17 A3017 RMK A01 T02380167  RH  068%=      5-min Rain = 0
KSP1 141410Z 03012KT 24/17 A3017 RMK A01 T02370168  RH  068%=      5-min Rain = 0
KSP1 141415Z 03010G15KT 24/17 A3017 RMK A01 T02400169  RH  068%=      5-min Rain = 0
KSP1 141420Z 03011KT 24/17 A3017 RMK A01 T02420170  RH  068%=      5-min Rain = 0
KSP1 141425Z 03011KT 25/17 A3017 RMK A01 T02450172  RH  067%=      5-min Rain = 0
KSP1 141430Z 03011KT 25/17 A3017 RMK A01 T02480174  RH  066%=      5-min Rain = 0
KSP1 141435Z 03012KT 25/18 A3017 RMK A01 T02500175  RH  066%=      5-min Rain = 0
KSP1 141440Z 04012KT 25/18 A3018 RMK A01 T02510177  RH  067%=      5-min Rain = 0
KSP1 141445Z 04012KT 25/18 A3018 RMK A01 T02540178  RH  066%=      5-min Rain = 0
KSP1 141450Z 04013KT 26/18 A3018 RMK A01 T02580180  RH  065%=      5-min Rain = 0
KSP1 141455Z 05012KT 26/18 A3018 RMK A01 T02590179  RH  065%=      5-min Rain = 0
KSP1 141500Z 05009KT 26/18 A3018 RMK A01 T02600179  RH  064%=      5-min Rain = 0
KSP1 141505Z 05010KT 26/18 A3017 RMK A01 T02630180  RH  063%=      5-min Rain = 0
KSP1 141510Z 05008KT 26/18 A3017 RMK A01 T02640180  RH  063%=      5-min Rain = 0
KSP1 141515Z 04009KT 27/18 A3017 RMK A01 T02690180  RH  061%=      5-min Rain = 0
KSP1 141520Z 06009KT 27/18 A3017 RMK A01 T02720180  RH  060%=      5-min Rain = 0
KSP1 141525Z 06009KT 27/18 A3017 RMK A01 T02710179  RH  060%=      5-min Rain = 0
KSP1 141530Z 04008G13KT 28/18 A3017 RMK A01 T02750181  RH  060%=      5-min Rain = 0
KSP1 141535Z 04009G14KT 28/18 A3017 RMK A01 T02810181  RH  058%=      5-min Rain = 0
KSP1 141540Z 04011KT 28/18 A3017 RMK A01 T02810180  RH  057%=      5-min Rain = 0
KSP1 141545Z 03011KT 28/18 A3017 RMK A01 T02830180  RH  057%=      5-min Rain = 0
KSP1 141550Z 03011KT 29/18 A3017 RMK A01 T02870181  RH  056%=      5-min Rain = 0
KSP1 141555Z 03012G17KT 29/18 A3018 RMK A01 T02890182  RH  055%=      5-min Rain = 0
KSP1 141600Z 03012G17KT 29/18 A3018 RMK A01 T02880181  RH  055%=      5-min Rain = 0
KSP1 141605Z 03013KT 29/18 A3018 RMK A01 T02880182  RH  056%=      5-min Rain = 0
KSP1 141610Z 03012KT 29/18 A3018 RMK A01 T02870182  RH  056%=      5-min Rain = 0
KSP1 141615Z 03009KT 29/18 A3017 RMK A01 T02880183  RH  056%=      5-min Rain = 0
KSP1 141620Z 04010G15KT 29/18 A3017 RMK A01 T02890182  RH  055%=      5-min Rain = 0
KSP1 141625Z 04010KT 29/18 A3017 RMK A01 T02930178  RH  053%=      5-min Rain = 0
KSP1 141630Z 03010KT 30/17 A3016 RMK A01 T02950174  RH  050%=      5-min Rain = 0
KSP1 141635Z 04009KT 30/18 A3016 RMK A01 T03000175  RH  049%=      5-min Rain = 0
KSP1 141640Z 03009G14KT 30/17 A3016 RMK A01 T02990174  RH  050%=      5-min Rain = 0
KSP1 141645Z 05010G16KT 30/17 A3016 RMK A01 T03000171  RH  048%=      5-min Rain = 0
KSP1 141650Z 07010KT 30/17 A3016 RMK A01 T03000169  RH  048%=      5-min Rain = 0
KSP1 141655Z 05008G13KT 30/17 A3015 RMK A01 T03010171  RH  048%=      5-min Rain = 0
KSP1 141700Z 05008KT 30/17 A3015 RMK A01 T03020168  RH  047%=      5-min Rain = 0
KSP1 141705Z 06007G12KT 31/17 A3014 RMK A01 T03070168  RH  046%=      5-min Rain = 0
KSP1 141710Z 06007G12KT 31/17 A3014 RMK A01 T03100167  RH  044%=      5-min Rain = 0
KSP1 141715Z 06004KT 31/17 A3014 RMK A01 T03100169  RH  045%=      5-min Rain = 0
KSP1 141720Z 06007KT 31/17 A3014 RMK A01 T03130165  RH  043%=      5-min Rain = 0
KSP1 141725Z 06007G12KT 32/17 A3014 RMK A01 T03160166  RH  043%=      5-min Rain = 0
KSP1 141730Z 06006KT 32/16 A3013 RMK A01 T03180162  RH  041%=      5-min Rain = 0
KSP1 141735Z 07008G13KT 32/16 A3013 RMK A01 T03170161  RH  041%=      5-min Rain = 0
KSP1 141740Z 04009G14KT 32/16 A3013 RMK A01 T03220159  RH  039%=      5-min Rain = 0
KSP1 141745Z 06008G14KT 33/16 A3012 RMK A01 T03260161  RH  039%=      5-min Rain = 0
KSP1 141750Z 07008G13KT 32/16 A3012 RMK A01 T03230158  RH  039%=      5-min Rain = 0
KSP1 141755Z 09009KT 33/15 A3011 RMK A01 T03260152  RH  037%=      5-min Rain = 0
KSP1 141800Z 06008G13KT 33/15 A3011 RMK A01 T03300150  RH  036%=      5-min Rain = 0
KSP1 141805Z 08008G14KT 33/15 A3011 RMK A01 T03310147  RH  034%=      5-min Rain = 0
KSP1 141810Z 09010G16KT 33/15 A3011 RMK A01 T03300149  RH  035%=      5-min Rain = 0
KSP1 141815Z 08008G14KT 34/15 A3011 RMK A01 T03350145  RH  033%=      5-min Rain = 0
KSP1 141820Z 07011G16KT 34/14 A3011 RMK A01 T03350144  RH  033%=      5-min Rain = 0
KSP1 141825Z 07007G14KT 33/15 A3011 RMK A01 T03330150  RH  035%=      5-min Rain = 0
KSP1 141830Z 08009G14KT 34/14 A301 RMK A01 T03390142  RH  032%=      5-min Rain = 0
KSP1 141835Z 05010G15KT 35/14 A301 RMK A01 T03450140  RH  030%=      5-min Rain = 0
KSP1 141840Z 05010G18KT 34/14 A301 RMK A01 T03440141  RH  031%=      5-min Rain = 0
KSP1 141845Z 07011G18KT 35/14 A301 RMK A01 T03450138  RH  030%=      5-min Rain = 0
KSP1 141850Z 06008KT 34/14 A301 RMK A01 T03430141  RH  031%=      5-min Rain = 0
KSP1 141855Z 06012KT 35/14 A3009 RMK A01 T03450137  RH  030%=      5-min Rain = 0
KSP1 141900Z 07010G16KT 35/14 A3009 RMK A01 T03460137  RH  030%=      5-min Rain = 0
KSP1 141905Z 07009G15KT 35/13 A3009 RMK A01 T03460134  RH  029%=      5-min Rain = 0
KSP1 141910Z 07010G16KT 35/14 A3009 RMK A01 T03470139  RH  030%=      5-min Rain = 0
KSP1 141915Z 04011G16KT 35/14 A3009 RMK A01 T03480138  RH  030%=      5-min Rain = 0
KSP1 141920Z 07009KT 35/14 A3009 RMK A01 T03510137  RH  029%=      5-min Rain = 0
KSP1 141925Z 08010G18KT 35/14 A3009 RMK A01 T03500140  RH  030%=      5-min Rain = 0
KSP1 141930Z 06009G20KT 36/14 A3009 RMK A01 T03550140  RH  029%=      5-min Rain = 0
KSP1 141935Z 06012G17KT 35/13 A3009 RMK A01 T03530134  RH  028%=      5-min Rain = 0
KSP1 141940Z 07009G15KT 36/14 A3008 RMK A01 T03560140  RH  029%=      5-min Rain = 0
KSP1 141945Z 05010G15KT 36/13 A3008 RMK A01 T03550130  RH  027%=      5-min Rain = 0
KSP1 141950Z 04011G18KT 36/13 A3008 RMK A01 T03550134  RH  028%=      5-min Rain = 0
KSP1 141955Z 06011G18KT 36/13 A3008 RMK A01 T03550133  RH  028%=      5-min Rain = 0
KSP1 142000Z 06007G14KT 35/14 A3007 RMK A01 T03540139  RH  029%=      5-min Rain = 0
KSP1 142005Z 06010KT 36/14 A3007 RMK A01 T03560143  RH  029%=      5-min Rain = 0
KSP1 142010Z 08010G18KT 35/14 A3006 RMK A01 T03540142  RH  029%=      5-min Rain = 0
KSP1 142015Z 06012G17KT 36/14 A3006 RMK A01 T03580139  RH  028%=      5-min Rain = 0
KSP1 142020Z 05008KT 36/14 A3006 RMK A01 T03570138  RH  028%=      5-min Rain = 0
KSP1 142025Z 04009G14KT 36/14 A3006 RMK A01 T03580137  RH  028%=      5-min Rain = 0
KSP1 142030Z 05011G16KT 36/14 A3006 RMK A01 T03570138  RH  028%=      5-min Rain = 0
KSP1 142035Z 05011G18KT 36/14 A3005 RMK A01 T03570139  RH  028%=      5-min Rain = 0
KSP1 142040Z 05009G17KT 36/14 A3005 RMK A01 T03600137  RH  027%=      5-min Rain = 0
KSP1 142045Z 04008G14KT 36/14 A3004 RMK A01 T03600136  RH  027%=      5-min Rain = 0
KSP1 142050Z 05012G19KT 36/13 A3004 RMK A01 T03630134  RH  026%=      5-min Rain = 0
KSP1 142055Z 06012G17KT 36/13 A3004 RMK A01 T03570128  RH  026%=      5-min Rain = 0
KSP1 142100Z 06008G13KT 36/13 A3004 RMK A01 T03560129  RH  027%=      5-min Rain = 0
KSP1 142105Z 08009G14KT 36/12 A3004 RMK A01 T03580120  RH  025%=      5-min Rain = 0
KSP1 142110Z 09006KT 36/12 A3003 RMK A01 T03570115  RH  024%=      5-min Rain = 0
KSP1 142115Z 09007G12KT 36/13 A3003 RMK A01 T03560125  RH  026%=      5-min Rain = 0
KSP1 142120Z 08009KT 36/13 A3003 RMK A01 T03570130  RH  027%=      5-min Rain = 0
KSP1 142125Z 07007G12KT 36/13 A3003 RMK A01 T03600130  RH  026%=      5-min Rain = 0
KSP1 142130Z 07006KT 36/13 A3002 RMK A01 T03610134  RH  027%=      5-min Rain = 0
KSP1 142135Z 06007G15KT 36/14 A3002 RMK A01 T03600135  RH  027%=      5-min Rain = 0
KSP1 142140Z 06009G15KT 36/14 A3002 RMK A01 T03600135  RH  027%=      5-min Rain = 0
KSP1 142145Z 07009G17KT 36/14 A3002 RMK A01 T03620139  RH  027%=      5-min Rain = 0
KSP1 142150Z 09008KT 36/14 A3002 RMK A01 T03590140  RH  028%=      5-min Rain = 0
KSP1 142155Z 07006G14KT 36/14 A3002 RMK A01 T03560140  RH  029%=      5-min Rain = 0
KSP1 142200Z 09009G14KT 36/14 A3002 RMK A01 T03600141  RH  028%=      5-min Rain = 0
KSP1 142205Z 09011G17KT 36/14 A3002 RMK A01 T03600140  RH  028%=      5-min Rain = 0
KSP1 142210Z 09008G13KT 36/14 A3002 RMK A01 T03580140  RH  028%=      5-min Rain = 0
KSP1 142215Z 08007G12KT 36/14 A3002 RMK A01 T03620140  RH  028%=      5-min Rain = 0
KSP1 142220Z 06008KT 36/14 A3002 RMK A01 T03620137  RH  027%=      5-min Rain = 0
KSP1 142225Z 07007KT 36/14 A3002 RMK A01 T03600135  RH  027%=      5-min Rain = 0
KSP1 142230Z 08008KT 36/14 A3002 RMK A01 T03580137  RH  028%=      5-min Rain = 0
KSP1 142235Z 08006KT 36/14 A3002 RMK A01 T03570136  RH  028%=      5-min Rain = 0
KSP1 142240Z 07008G14KT 36/14 A3002 RMK A01 T03580138  RH  028%=      5-min Rain = 0
KSP1 142245Z 06009KT 36/14 A3002 RMK A01 T03570137  RH  028%=      5-min Rain = 0
KSP1 142250Z 06006G11KT 36/14 A3001 RMK A01 T03580136  RH  028%=      5-min Rain = 0
KSP1 142255Z 07009KT 36/14 A3001 RMK A01 T03570135  RH  028%=      5-min Rain = 0
KSP1 142300Z 08010G15KT 36/14 A3002 RMK A01 T03570136  RH  028%=      5-min Rain = 0
KSP1 142305Z 06007G14KT 36/14 A3002 RMK A01 T03570136  RH  028%=      5-min Rain = 0
KSP1 142310Z 08009KT 36/14 A3002 RMK A01 T03580135  RH  027%=      5-min Rain = 0
KSP1 142315Z 08008G14KT 36/13 A3002 RMK A01 T03550134  RH  028%=      5-min Rain = 0
KSP1 142320Z 07007KT 36/13 A3002 RMK A01 T03550134  RH  028%=      5-min Rain = 0
KSP1 142325Z 08008KT 36/13 A3002 RMK A01 T03560133  RH  027%=      5-min Rain = 0
KSP1 142330Z 07006KT 36/13 A3002 RMK A01 T03570132  RH  027%=      5-min Rain = 0
KSP1 142335Z 08007KT 36/13 A3001 RMK A01 T03560132  RH  027%=      5-min Rain = 0
KSP1 142340Z 07009G15KT 35/14 A3001 RMK A01 T03530136  RH  028%=      5-min Rain = 0
KSP1 142345Z 11008G13KT 35/14 A3001 RMK A01 T03520139  RH  029%=      5-min Rain = 0
KSP1 142350Z 08008G15KT 35/13 A3001 RMK A01 T03530134  RH  028%=      5-min Rain = 0
KSP1 142355Z 06010KT 35/14 A3001 RMK A01 T03520138  RH  029%=      5-min Rain = 0
KSP1 150000Z 07007G12KT 35/14 A3001 RMK A01 T03530140  RH  029%=      5-min Rain = 0
KSP1 150005Z 08007KT 35/14 A3001 RMK A01 T03510139  RH  029%=      5-min Rain = 0
KSP1 150010Z 08005KT 35/14 A3001 RMK A01 T03500138  RH  029%=      5-min Rain = 0
KSP1 150015Z 07006KT 35/14 A3001 RMK A01 T03500138  RH  029%=      5-min Rain = 0
KSP1 150020Z 09007G12KT 35/14 A3001 RMK A01 T03500140  RH  029%=      5-min Rain = 0
KSP1 150025Z 08006G11KT 35/14 A3001 RMK A01 T03490140  RH  030%=      5-min Rain = 0
KSP1 150030Z 07009KT 35/14 A3002 RMK A01 T03470141  RH  030%=      5-min Rain = 0
KSP1 150035Z 07009KT 34/14 A3002 RMK A01 T03440142  RH  031%=      5-min Rain = 0
KSP1 150040Z 08008KT 34/14 A3002 RMK A01 T03430141  RH  031%=      5-min Rain = 0
KSP1 150045Z 09008KT 34/14 A3002 RMK A01 T03420141  RH  031%=      5-min Rain = 0
KSP1 150050Z 10008KT 34/14 A3002 RMK A01 T03400143  RH  032%=      5-min Rain = 0
KSP1 150055Z 09009KT 34/15 A3003 RMK A01 T03390148  RH  033%=      5-min Rain = 0
KSP1 150100Z 10010KT 34/15 A3003 RMK A01 T03370151  RH  034%=      5-min Rain = 0
KSP1 150105Z 11008KT 34/15 A3003 RMK A01 T03350152  RH  035%=      5-min Rain = 0
KSP1 150110Z 10009KT 33/15 A3003 RMK A01 T03340152  RH  035%=      5-min Rain = 0
KSP1 150115Z 10009KT 33/15 A3003 RMK A01 T03320153  RH  036%=      5-min Rain = 0
KSP1 150120Z 10007KT 33/15 A3003 RMK A01 T03300153  RH  036%=      5-min Rain = 0
KSP1 150125Z 10006KT 33/15 A3003 RMK A01 T03290154  RH  037%=      5-min Rain = 0
KSP1 150130Z 10006KT 33/15 A3004 RMK A01 T03270154  RH  037%=      5-min Rain = 0
KSP1 150135Z 11006KT 33/16 A3004 RMK A01 T03260155  RH  038%=      5-min Rain = 0
KSP1 150140Z 12005KT 32/16 A3004 RMK A01 T03240158  RH  039%=      5-min Rain = 0
KSP1 150145Z 12005KT 32/16 A3004 RMK A01 T03210161  RH  040%=      5-min Rain = 0
KSP1 150150Z 13004KT 32/16 A3004 RMK A01 T03180162  RH  041%=      5-min Rain = 0
KSP1 150155Z 12005KT 32/16 A3005 RMK A01 T03170163  RH  042%=      5-min Rain = 0
KSP1 150200Z 11004KT 32/16 A3005 RMK A01 T03150163  RH  042%=      5-min Rain = 0
KSP1 150205Z 11005KT 31/16 A3006 RMK A01 T03140163  RH  042%=      5-min Rain = 0
KSP1 150210Z 11005KT 31/16 A3006 RMK A01 T03140163  RH  042%=      5-min Rain = 0
KSP1 150215Z 11005KT 31/16 A3006 RMK A01 T03130163  RH  042%=      5-min Rain = 0
KSP1 150220Z 11005KT 31/16 A3006 RMK A01 T03120162  RH  043%=      5-min Rain = 0
KSP1 150225Z 12005KT 31/16 A3007 RMK A01 T03120162  RH  043%=      5-min Rain = 0
KSP1 150230Z 11004KT 31/16 A3007 RMK A01 T03100162  RH  043%=      5-min Rain = 0
KSP1 150235Z 11004KT 31/16 A3007 RMK A01 T03090161  RH  043%=      5-min Rain = 0
KSP1 150240Z 12005KT 31/16 A3007 RMK A01 T03080161  RH  043%=      5-min Rain = 0
KSP1 150245Z 12004KT 31/16 A3008 RMK A01 T03060161  RH  044%=      5-min Rain = 0
KSP1 150250Z 11004KT 30/16 A3008 RMK A01 T03040161  RH  044%=      5-min Rain = 0
KSP1 150255Z 11005KT 30/16 A3008 RMK A01 T03030161  RH  044%=      5-min Rain = 0
KSP1 150300Z 11005KT 30/16 A3008 RMK A01 T03020161  RH  045%=      5-min Rain = 0
KSP1 150305Z 11005KT 30/16 A3009 RMK A01 T03010162  RH  045%=      5-min Rain = 0
KSP1 150310Z 11005KT 30/16 A3009 RMK A01 T03000162  RH  045%=      5-min Rain = 0
KSP1 150315Z 12005KT 30/16 A3009 RMK A01 T02990162  RH  046%=      5-min Rain = 0
KSP1 150320Z 12005KT 30/16 A3009 RMK A01 T02980162  RH  046%=      5-min Rain = 0
KSP1 150325Z 11005KT 30/16 A3009 RMK A01 T02970163  RH  046%=      5-min Rain = 0
KSP1 150330Z 11005KT 30/16 A3009 RMK A01 T02960163  RH  047%=      5-min Rain = 0
KSP1 150335Z 11005KT 30/16 A3009 RMK A01 T02950164  RH  047%=      5-min Rain = 0
KSP1 150340Z 11005KT 29/16 A301 RMK A01 T02940164  RH  048%=      5-min Rain = 0
KSP1 150345Z 11005KT 29/16 A301 RMK A01 T02930164  RH  048%=      5-min Rain = 0
KSP1 150350Z 11006KT 29/17 A301 RMK A01 T02920165  RH  049%=      5-min Rain = 0
KSP1 150355Z 11005KT 29/17 A301 RMK A01 T02910166  RH  049%=      5-min Rain = 0
KSP1 150400Z 11005KT 29/17 A301 RMK A01 T02900166  RH  049%=      5-min Rain = 0
KSP1 150405Z 11005KT 29/17 A301 RMK A01 T02900167  RH  050%=      5-min Rain = 0
KSP1 150410Z 11005KT 29/17 A301 RMK A01 T02890167  RH  050%=      5-min Rain = 0
KSP1 150415Z 11005KT 29/17 A301 RMK A01 T02880167  RH  051%=      5-min Rain = 0
KSP1 150420Z 10005KT 29/17 A301 RMK A01 T02880168  RH  051%=      5-min Rain = 0
KSP1 150425Z 11005KT 29/17 A301 RMK A01 T02870168  RH  051%=      5-min Rain = 0
KSP1 150430Z 10005KT 29/17 A301 RMK A01 T02860168  RH  051%=      5-min Rain = 0
KSP1 150435Z 10004KT 29/17 A301 RMK A01 T02850168  RH  052%=      5-min Rain = 0
KSP1 150440Z 10005KT 28/17 A301 RMK A01 T02840169  RH  052%=      5-min Rain = 0
KSP1 150445Z 10005KT 28/17 A301 RMK A01 T02830169  RH  053%=      5-min Rain = 0
KSP1 150450Z 11004KT 28/17 A301 RMK A01 T02810169  RH  053%=      5-min Rain = 0
KSP1 150455Z 11004KT 28/17 A301 RMK A01 T02800170  RH  054%=      5-min Rain = 0

Page generated in 0.009 seconds.